aviador You're here:

LFPV Decoded Metar

VILLACOUBLAY in FRANCE
Report Time2018-02-25 15:00:00
UTC Time2018-02-25 15:26:20
Flight Rules vfr VFR
Wind040° at 16 kt
W.Decomp.*RWY 09: 10.5 kt HW 12.1 kt LCW
W.Rank040° ranks 19
Current wind is above 040° avg. (6.6)
Visibility9999 m
Phenomena:N/A
Clouds:N/A
Expected CloudBase > 6,000 ft AGL from Temp-Dew spread
CeilingNone
Temp02°C (ISA -12)
Dew Point-13°C (32% RH)
AAT-7.0°C
QNH1021 hPa
Density Alt-1,089 ft
Elevation587 ft
Report Wrong Elevation
Raw Report
LFPV 251500Z AUTO 04016KT 010V080 9999 NSC 02/M13 Q1021 TEMPO
06015G25KT=

Extra information for LFPV:More info

Metar Taf Metar & Taf Last 4 Metars F.Rules Stats Wind Profile Meteogram Temp Stats Airport Information Weather charts Add Link Nearby VenuesMetar ALERT Operation Metar Decoded Social comments